Time;durP1;ratioP1;P1;durP2;ratioP2;P2;SDS_P1;SDS_P2;PMS_P1;PMS_P2;Temp;Humidity;BMP_temperature;BMP_pressure;BME280_temperature;BME280_humidity;BME280_pressure;Samples;Min_cycle;Max_cycle;Signal;HPM_P1;HPM_P2
2023/09/24 00:01:15;;;;;;;1.25;1.00;;;;;;;10.77;88.24;151384.53;10499636;28;20041;-72
2023/09/24 00:06:17;;;;;;;1.98;1.48;;;;;;;10.74;88.21;151376.75;10498072;28;20040;-72
2023/09/24 00:11:19;;;;;;;3.25;1.73;;;;;;;10.68;88.40;151360.00;10498024;28;20094;-72
2023/09/24 00:16:21;;;;;;;1.63;1.33;;;;;;;10.75;88.83;151379.31;10498013;28;20055;-71
2023/09/24 00:21:24;;;;;;;1.55;1.10;;;;;;;10.63;90.18;151348.38;10502615;28;20048;-73
2023/09/24 00:26:27;;;;;;;3.08;1.95;;;;;;;10.50;90.66;151316.09;10505844;28;20047;-73
2023/09/24 00:31:30;;;;;;;1.50;1.15;;;;;;;10.38;92.23;151283.81;10487748;28;20095;-72
2023/09/24 00:36:33;;;;;;;1.70;1.15;;;;;;;10.35;93.28;151278.63;10506360;28;20033;-73
2023/09/24 00:41:36;;;;;;;2.25;1.40;;;;;;;10.46;92.28;151304.47;10507671;28;20509;-73
2023/09/24 00:46:38;;;;;;;1.65;1.23;;;;;;;10.26;94.15;151254.09;10505360;28;20441;-73
2023/09/24 00:51:41;;;;;;;1.50;1.13;;;;;;;10.11;96.42;151217.91;10487053;28;20269;-72
2023/09/24 00:56:43;;;;;;;2.17;1.10;;;;;;;10.06;96.45;151205.03;10505278;28;20433;-72
2023/09/24 01:01:44;;;;;;;2.45;1.23;;;;;;;10.08;95.88;151208.88;10486869;28;20473;-73
2023/09/24 01:06:46;;;;;;;1.95;1.30;;;;;;;10.10;95.65;151214.06;10486731;28;20492;-72
2023/09/24 01:11:52;;;;;;;1.42;1.33;;;;;;;10.06;96.39;151205.03;10504033;28;20036;-72
2023/09/24 01:16:55;;;;;;;;;;;;;;;10.07;95.44;151207.59;10504221;28;20059;-72
2023/09/24 01:22:01;;;;;;;1.75;1.30;;;;;;;10.04;95.23;151199.84;10503870;28;19952;-72
2023/09/24 01:27:02;;;;;;;1.10;1.00;;;;;;;9.95;97.09;151176.59;10487684;28;20036;-72
2023/09/24 01:32:06;;;;;;;2.20;1.23;;;;;;;9.88;97.03;151158.56;10502391;28;20044;-72
2023/09/24 01:37:09;;;;;;;2.40;1.33;;;;;;;10.13;96.99;151220.50;10502997;28;20174;-72
2023/09/24 01:42:13;;;;;;;1.77;1.20;;;;;;;10.39;95.36;151286.38;10504092;28;20496;-71
2023/09/24 01:47:15;;;;;;;2.05;1.30;;;;;;;10.07;97.22;151206.31;10505217;28;20041;-70
2023/09/24 01:52:17;;;;;;;1.38;1.10;;;;;;;9.96;97.96;151179.22;10502212;28;20048;-72
2023/09/24 01:57:19;;;;;;;1.20;0.90;;;;;;;10.04;97.07;151199.84;10484696;28;20044;-73
2023/09/24 02:02:21;;;;;;;2.10;1.00;;;;;;;10.05;97.16;151201.16;10484735;28;20052;-72
2023/09/24 02:07:23;;;;;;;1.55;1.27;;;;;;;9.92;99.25;151167.63;10503244;28;20041;-72
2023/09/24 02:12:25;;;;;;;2.00;1.27;;;;;;;9.96;99.84;151179.22;10503220;28;20071;-72
2023/09/24 02:17:27;;;;;;;1.55;1.20;;;;;;;9.92;100.00;151168.91;10483308;28;20455;-72
2023/09/24 02:22:29;;;;;;;0.93;0.80;;;;;;;9.98;99.80;151184.38;10501510;28;20037;-71
2023/09/24 02:27:33;;;;;;;1.05;0.95;;;;;;;10.07;99.96;151206.31;10501790;28;20396;-72
2023/09/24 02:32:35;;;;;;;1.60;1.08;;;;;;;10.04;99.26;151198.53;10502926;28;20055;-71
2023/09/24 02:37:41;;;;;;;1.25;0.70;;;;;;;10.15;97.87;151225.69;10500546;28;20040;-71
2023/09/24 02:42:46;;;;;;;1.60;1.02;;;;;;;10.05;98.99;151201.16;10483137;28;20087;-71
2023/09/24 02:47:51;;;;;;;0.95;0.80;;;;;;;10.02;99.34;151194.69;10482145;28;20040;-71
2023/09/24 02:52:55;;;;;;;1.52;1.00;;;;;;;10.24;97.41;151250.25;10501409;28;20044;-71
2023/09/24 02:57:57;;;;;;;1.30;1.10;;;;;;;9.96;98.78;151179.22;10482022;28;20041;-71
2023/09/24 03:03:00;;;;;;;1.00;0.75;;;;;;;9.93;99.52;151170.19;10499751;28;20044;-71
2023/09/24 03:08:03;;;;;;;2.00;0.98;;;;;;;10.17;99.24;151230.81;10481479;28;20507;-71
2023/09/24 03:13:05;;;;;;;1.65;1.02;;;;;;;9.90;99.02;151162.41;10481961;28;20056;-71
2023/09/24 03:18:07;;;;;;;1.55;1.20;;;;;;;9.81;100.00;151141.78;10499895;28;20039;-71
2023/09/24 03:23:09;;;;;;;1.67;1.25;;;;;;;9.98;100.00;151184.38;10498335;28;20048;-71
2023/09/24 03:28:11;;;;;;;1.30;1.02;;;;;;;10.03;100.00;151195.97;10481473;28;20041;-71
2023/09/24 03:33:13;;;;;;;1.13;1.00;;;;;;;9.96;99.87;151179.22;10498934;28;20040;-71
2023/09/24 03:38:15;;;;;;;1.20;1.10;;;;;;;9.88;100.00;151158.56;10482054;28;20049;-71
2023/09/24 03:43:18;;;;;;;1.67;1.35;;;;;;;9.62;100.00;151092.75;10480729;28;20044;-71
2023/09/24 03:48:21;;;;;;;1.98;0.95;;;;;;;9.87;100.00;151155.94;10480153;28;20075;-71
2023/09/24 03:53:23;;;;;;;1.27;0.90;;;;;;;9.65;100.00;151099.19;10499056;28;20056;-71
2023/09/24 03:58:25;;;;;;;1.10;0.93;;;;;;;9.56;100.00;151077.25;10505443;28;20461;-71
2023/09/24 04:03:28;;;;;;;1.85;1.15;;;;;;;9.70;100.00;151112.13;10506145;28;20040;-71
2023/09/24 04:08:30;;;;;;;1.05;0.90;;;;;;;9.65;100.00;151100.50;10506620;28;20116;-71
2023/09/24 04:13:32;;;;;;;1.30;0.95;;;;;;;9.53;100.00;151069.53;10506392;28;20048;-72
2023/09/24 04:18:35;;;;;;;1.55;1.00;;;;;;;9.52;100.00;151068.25;10506702;28;20040;-71
2023/09/24 04:23:37;;;;;;;1.85;1.10;;;;;;;9.44;100.00;151046.31;10506055;28;20072;-72
2023/09/24 04:28:38;;;;;;;2.05;1.67;;;;;;;9.55;100.00;151075.94;10505111;28;20116;-71
2023/09/24 04:33:41;;;;;;;2.08;1.50;;;;;;;9.29;100.00;151008.88;10470640;28;20049;-71
2023/09/24 04:38:44;;;;;;;2.05;1.40;;;;;;;9.24;100.00;150995.97;10486773;28;20041;-71
2023/09/24 04:43:46;;;;;;;2.40;1.75;;;;;;;9.22;100.00;150990.84;10505971;28;20078;-71
2023/09/24 04:48:48;;;;;;;8.77;2.20;;;;;;;9.42;100.00;151041.13;10504420;28;20041;-71
2023/09/24 04:53:50;;;;;;;4.55;2.15;;;;;;;9.35;100.00;151024.38;10486435;28;20095;-73
2023/09/24 04:58:52;;;;;;;2.88;1.70;;;;;;;9.27;100.00;151005.03;10504039;28;20040;-71
2023/09/24 05:03:54;;;;;;;2.80;1.80;;;;;;;8.92;100.00;150916.03;10506567;28;20044;-71
2023/09/24 05:08:56;;;;;;;1.67;1.50;;;;;;;8.87;100.00;150901.84;10503871;28;20068;-71
2023/09/24 05:13:58;;;;;;;2.65;1.65;;;;;;;8.87;100.00;150901.84;10485781;28;20413;-71
2023/09/24 05:19:02;;;;;;;2.05;1.20;;;;;;;8.92;100.00;150916.03;10503707;28;20377;-71
2023/09/24 05:24:04;;;;;;;1.63;1.33;;;;;;;8.94;100.00;150921.22;10504912;28;20075;-71
2023/09/24 05:29:06;;;;;;;2.58;2.15;;;;;;;9.07;100.00;150954.75;10503975;28;20423;-71
2023/09/24 05:34:08;;;;;;;2.60;1.52;;;;;;;9.32;100.00;151017.91;10503302;28;20072;-71
2023/09/24 05:39:11;;;;;;;2.53;1.70;;;;;;;9.83;100.00;151146.94;10503578;28;20036;-72
2023/09/24 05:44:15;;;;;;;1.55;1.45;;;;;;;9.80;100.00;151137.91;10502557;28;20048;-71
2023/09/24 05:49:18;;;;;;;1.67;1.55;;;;;;;9.97;100.00;151181.78;10504220;28;20052;-71
2023/09/24 05:54:19;;;;;;;1.48;1.35;;;;;;;10.42;100.00;151295.44;10483913;28;20048;-71
2023/09/24 05:59:21;;;;;;;3.15;1.85;;;;;;;10.42;100.00;151295.44;10483820;28;20049;-70
2023/09/24 06:04:23;;;;;;;1.60;1.17;;;;;;;10.53;100.00;151322.53;10484584;28;20044;-71
2023/09/24 06:09:28;;;;;;;1.80;1.40;;;;;;;10.67;100.00;151357.38;10501939;28;20033;-71
2023/09/24 06:14:31;;;;;;;2.25;1.45;;;;;;;10.84;99.65;151401.28;10500783;28;20048;-72
2023/09/24 06:19:32;;;;;;;1.95;1.30;;;;;;;11.06;98.21;151456.81;10497466;28;20047;-72
2023/09/24 06:24:34;;;;;;;1.90;1.40;;;;;;;11.08;98.01;151462.00;10478922;28;20123;-72
2023/09/24 06:29:36;;;;;;;1.33;1.23;;;;;;;11.25;97.90;151505.94;10496843;28;20124;-72
2023/09/24 06:34:38;;;;;;;2.08;1.10;;;;;;;11.48;95.07;151564.06;10459277;28;20489;-72
2023/09/24 06:39:41;;;;;;;1.27;1.05;;;;;;;11.40;96.80;151543.38;10459500;28;20059;-72
2023/09/24 06:44:44;;;;;;;1.70;1.00;;;;;;;11.63;96.28;151602.81;10441793;28;20053;-71
2023/09/24 06:49:50;;;;;;;2.33;1.10;;;;;;;11.83;94.17;151653.28;10459765;28;20095;-71
2023/09/24 06:54:51;;;;;;;1.92;1.30;;;;;;;12.10;93.20;151721.78;10441569;28;20103;-72
2023/09/24 06:59:53;;;;;;;1.88;1.70;;;;;;;12.14;94.43;151729.56;10458043;28;20558;-71
2023/09/24 07:04:55;;;;;;;2.33;1.13;;;;;;;12.59;90.75;151844.59;10457789;28;20049;-71
2023/09/24 07:09:59;;;;;;;1.85;1.13;;;;;;;12.89;85.63;151920.91;10457298;28;20489;-71
2023/09/24 07:15:01;;;;;;;2.22;1.10;;;;;;;12.78;89.28;151892.44;10426257;28;20053;-71
2023/09/24 07:20:05;;;;;;;1.13;0.88;;;;;;;13.03;86.84;151955.84;10458175;28;20408;-72
2023/09/24 07:25:07;;;;;;;1.33;1.10;;;;;;;13.27;84.73;152017.97;10457656;28;20045;-71
2023/09/24 07:30:10;;;;;;;1.70;1.15;;;;;;;13.20;84.29;151999.81;10438542;28;20041;-71
2023/09/24 07:35:11;;;;;;;1.17;1.05;;;;;;;13.18;84.47;151993.34;10458616;28;20079;-72
2023/09/24 07:40:14;;;;;;;1.58;1.08;;;;;;;13.44;82.36;152060.66;10456990;28;20061;-72
2023/09/24 07:45:18;;;;;;;1.80;1.70;;;;;;;13.55;81.82;152087.88;10456874;28;20459;-72
2023/09/24 07:50:20;;;;;;;1.50;1.00;;;;;;;13.42;83.49;152055.50;10439415;28;20139;-72
2023/09/24 07:55:22;;;;;;;1.77;1.05;;;;;;;13.63;82.56;152108.53;10438688;28;20045;-71
2023/09/24 08:00:24;;;;;;;1.33;1.02;;;;;;;14.08;80.50;152223.75;10458226;28;20041;-72
2023/09/24 08:05:25;;;;;;;1.23;1.00;;;;;;;14.56;77.57;152344.19;10457153;28;20056;-71
2023/09/24 08:10:27;;;;;;;2.05;1.13;;;;;;;14.47;78.44;152320.81;10456363;28;20386;-71
2023/09/24 08:15:32;;;;;;;1.23;0.90;;;;;;;14.58;79.10;152349.38;10456856;28;20045;-74
2023/09/24 08:20:36;;;;;;;2.00;0.85;;;;;;;14.67;76.78;152371.41;10459456;28;20041;-74
2023/09/24 08:25:39;;;;;;;1.58;0.90;;;;;;;14.75;77.37;152393.44;10465580;28;20049;-74
2023/09/24 08:30:40;;;;;;;1.25;1.00;;;;;;;15.00;76.52;152456.88;10465385;28;20284;-73
2023/09/24 08:35:43;;;;;;;2.15;1.40;;;;;;;14.98;75.87;152450.41;10479922;28;20084;-73
2023/09/24 08:40:45;;;;;;;1.95;1.02;;;;;;;15.02;77.62;152460.78;10499374;28;20085;-72
2023/09/24 08:45:48;;;;;;;1.42;1.00;;;;;;;15.18;76.80;152500.91;10504726;28;20079;-72
2023/09/24 08:50:49;;;;;;;1.45;1.20;;;;;;;14.98;77.74;152450.41;10487074;28;20075;-73
2023/09/24 08:55:51;;;;;;;1.27;0.80;;;;;;;14.94;78.28;152440.03;10504852;28;20043;-73
2023/09/24 09:00:54;;;;;;;1.50;0.80;;;;;;;15.03;78.90;152464.66;10504945;28;20440;-73
2023/09/24 09:05:56;;;;;;;1.70;1.20;;;;;;;15.17;77.67;152498.34;10506646;28;20485;-73
2023/09/24 09:10:57;;;;;;;2.47;1.30;;;;;;;15.44;76.47;152567.00;10504124;28;20044;-73
2023/09/24 09:16:03;;;;;;;2.08;1.13;;;;;;;15.56;75.71;152599.41;10503822;28;20040;-73
2023/09/24 09:21:05;;;;;;;0.95;0.80;;;;;;;15.55;75.74;152596.81;10503249;28;20036;-73
2023/09/24 09:26:07;;;;;;;2.20;1.25;;;;;;;15.73;74.33;152640.94;10504669;28;20044;-72
2023/09/24 09:31:10;;;;;;;1.65;1.27;;;;;;;15.63;74.60;152616.28;10504159;28;20041;-72
2023/09/24 09:36:23;;;;;;;1.88;1.10;;;;;;;15.77;74.06;152651.31;10502643;28;20041;-72
2023/09/24 09:41:26;;;;;;;1.10;1.00;;;;;;;15.91;74.18;152686.28;10502872;28;20416;-72
2023/09/24 09:46:29;;;;;;;1.70;1.00;;;;;;;16.54;71.59;152848.34;10503818;28;20496;-72
2023/09/24 09:51:46;;;;;;;2.22;1.20;;;;;;;16.86;70.51;152928.78;10502098;28;20127;-72
2023/09/24 09:56:48;;;;;;;2.00;1.20;;;;;;;17.55;67.17;153105.25;10483451;28;20047;-71
2023/09/24 10:01:50;;;;;;;1.58;1.05;;;;;;;17.59;67.14;153115.63;10502118;28;20500;-73
2023/09/24 10:06:52;;;;;;;1.65;1.00;;;;;;;17.24;67.49;153026.09;10501940;28;20047;-72
2023/09/24 10:11:56;;;;;;;2.08;1.00;;;;;;;17.10;69.65;152991.06;10504527;28;20032;-73
2023/09/24 10:17:23;;;;;;;1.35;1.10;;;;;;;17.59;65.60;153115.63;10484661;28;20452;-72
2023/09/24 10:22:31;;;;;;;1.35;1.02;;;;;;;17.58;65.98;153111.75;10502803;28;20048;-74
2023/09/24 10:27:33;;;;;;;1.83;1.17;;;;;;;17.47;65.88;153083.19;10501486;28;20040;-73
2023/09/24 10:32:43;;;;;;;1.45;1.02;;;;;;;18.04;64.98;153228.59;10503280;28;20040;-72
2023/09/24 10:38:00;;;;;;;1.15;1.02;;;;;;;17.80;63.72;153167.63;10500940;28;20083;-73
2023/09/24 10:43:10;;;;;;;0.60;0.60;;;;;;;17.48;66.46;153087.06;10500509;28;20071;-72
2023/09/24 10:48:15;;;;;;;1.27;1.02;;;;;;;17.62;64.27;153122.16;10502020;28;20034;-71
2023/09/24 10:53:18;;;;;;;0.80;0.73;;;;;;;17.39;67.33;153065.00;10503251;28;20070;-73
2023/09/24 10:58:20;;;;;;;1.23;0.80;;;;;;;17.38;67.42;153061.13;10483849;28;20053;-73
2023/09/24 11:03:22;;;;;;;0.93;0.60;;;;;;;17.36;66.51;153055.97;10482499;28;20036;-72
2023/09/24 11:08:27;;;;;;;0.88;0.70;;;;;;;17.31;66.09;153044.28;10467736;28;20127;-74
2023/09/24 11:13:29;;;;;;;0.70;0.70;;;;;;;17.79;63.89;153164.97;10502387;28;20067;-74
2023/09/24 11:18:32;;;;;;;0.98;0.77;;;;;;;18.32;62.77;153300.00;10503022;28;20143;-74
2023/09/24 11:23:37;;;;;;;0.60;0.60;;;;;;;18.70;60.39;153396.16;10483332;28;20151;-73
2023/09/24 11:28:40;;;;;;;;;;;;;;;18.07;62.21;153236.41;10483685;28;20055;-72
2023/09/24 11:33:55;;;;;;;1.50;0.52;;;;;;;18.72;60.85;153402.63;10482193;28;19924;-72
2023/09/24 11:39:00;;;;;;;0.50;0.40;;;;;;;19.76;57.64;153667.72;10494486;28;20033;-72
2023/09/24 11:44:02;;;;;;;1.33;0.43;;;;;;;19.86;52.49;153692.41;10481212;28;20603;-72
2023/09/24 11:49:04;;;;;;;0.30;0.30;;;;;;;19.90;53.87;153702.81;10500045;28;20366;-72
2023/09/24 11:54:14;;;;;;;0.15;0.10;;;;;;;19.59;51.43;153624.78;10499035;28;20518;-73
2023/09/24 11:59:16;;;;;;;0.30;0.10;;;;;;;19.32;52.68;153555.91;10500961;28;20040;-74
2023/09/24 12:04:18;;;;;;;0.52;0.10;;;;;;;18.62;53.59;153377.91;10499977;28;20041;-74
2023/09/24 12:09:19;;;;;;;0.70;0.20;;;;;;;18.63;55.17;153379.19;10499021;28;20052;-73
2023/09/24 12:14:21;;;;;;;1.08;0.30;;;;;;;18.58;56.12;153367.50;10499954;28;20036;-73
2023/09/24 12:19:23;;;;;;;0.85;0.30;;;;;;;18.75;56.22;153410.44;10505721;28;20131;-73
2023/09/24 12:24:25;;;;;;;0.32;0.20;;;;;;;19.04;56.16;153483.19;10507116;28;20047;-73
2023/09/24 12:29:29;;;;;;;0.57;0.20;;;;;;;19.50;53.24;153600.09;10506581;28;20044;-73
2023/09/24 12:34:32;;;;;;;0.90;0.47;;;;;;;18.96;55.81;153462.41;10490073;28;20492;-73
2023/09/24 12:39:33;;;;;;;0.20;0.20;;;;;;;19.02;53.31;153479.25;10506194;28;20055;-73
2023/09/24 12:44:35;;;;;;;0.57;0.20;;;;;;;18.81;54.16;153424.69;10508404;28;20124;-73
2023/09/24 12:49:37;;;;;;;0.30;0.20;;;;;;;18.27;55.59;153287.00;10506475;28;20044;-73
2023/09/24 12:54:39;;;;;;;0.40;0.20;;;;;;;18.49;56.10;153344.16;10504890;28;20040;-73
2023/09/24 12:59:41;;;;;;;0.20;0.13;;;;;;;18.38;55.22;153315.59;10504462;28;20037;-74
2023/09/24 13:04:44;;;;;;;0.63;0.20;;;;;;;18.76;53.87;153413.00;10506470;28;20068;-74
2023/09/24 13:09:46;;;;;;;0.30;0.22;;;;;;;18.48;54.07;153340.25;10504830;28;20041;-74
2023/09/24 13:14:48;;;;;;;0.50;0.20;;;;;;;18.32;54.32;153301.28;10470610;28;20455;-75
2023/09/24 13:19:51;;;;;;;0.40;0.28;;;;;;;18.36;54.65;153311.69;10486819;28;20052;-74
2023/09/24 13:24:53;;;;;;;0.40;0.25;;;;;;;18.31;54.73;153297.41;10488640;28;20127;-75
2023/09/24 13:29:54;;;;;;;0.28;0.20;;;;;;;18.61;53.02;153374.03;10503715;28;20378;-74
2023/09/24 13:34:57;;;;;;;0.20;0.20;;;;;;;19.00;52.76;153472.78;10494396;28;20036;-74
2023/09/24 13:40:00;;;;;;;0.52;0.28;;;;;;;18.73;53.38;153405.25;10503113;28;20064;-73
2023/09/24 13:45:07;;;;;;;0.32;0.20;;;;;;;18.52;54.28;153351.94;10505046;28;20052;-73
2023/09/24 13:50:10;;;;;;;0.22;0.22;;;;;;;18.36;55.67;153311.69;10505540;28;20040;-73
2023/09/24 13:55:11;;;;;;;0.20;0.20;;;;;;;18.35;55.77;153307.78;10503255;28;20412;-75
2023/09/24 14:00:13;;;;;;;0.70;0.20;;;;;;;18.28;56.19;153290.94;10502805;28;20127;-74
2023/09/24 14:05:15;;;;;;;0.10;0.10;;;;;;;18.40;55.60;153320.78;10501978;28;20044;-74
2023/09/24 14:15:37;;;;;;;0.20;0.20;;;;;;;18.46;55.76;153336.38;10501833;28;20127;-74
2023/09/24 14:20:39;;;;;;;0.80;0.10;;;;;;;18.41;55.04;153324.66;10501648;28;20040;-74
2023/09/24 14:25:42;;;;;;;0.32;0.30;;;;;;;18.81;54.27;153426.00;10484811;28;20052;-74
2023/09/24 14:30:43;;;;;;;0.57;0.20;;;;;;;19.13;52.15;153507.88;10486373;28;20044;-73
2023/09/24 14:35:45;;;;;;;0.20;0.20;;;;;;;18.95;53.67;153461.09;10483443;28;20445;-71
2023/09/24 14:40:47;;;;;;;0.25;0.20;;;;;;;19.31;50.80;153552.03;10481517;28;20136;-72
2023/09/24 14:46:00;;;;;;;0.17;0.10;;;;;;;19.06;52.18;153488.38;10500711;28;20119;-74
2023/09/24 14:51:03;;;;;;;0.77;0.13;;;;;;;18.86;53.13;153437.72;10501814;28;20530;-72
2023/09/24 14:56:05;;;;;;;0.10;0.10;;;;;;;18.60;54.22;153371.44;10483751;28;20093;-72
2023/09/24 15:01:07;;;;;;;0.43;0.20;;;;;;;18.44;55.01;153331.16;10482240;28;20036;-71
2023/09/24 15:06:10;;;;;;;0.10;0.10;;;;;;;18.41;54.03;153324.66;10499430;28;20504;-72
2023/09/24 15:11:12;;;;;;;0.73;0.20;;;;;;;18.19;54.53;153266.25;10482280;28;20465;-72
2023/09/24 15:16:13;;;;;;;0.40;0.20;;;;;;;18.13;53.68;153253.25;10500899;28;20106;-71
2023/09/24 15:21:17;;;;;;;0.45;0.20;;;;;;;17.80;56.14;153167.63;10484875;28;20098;-70
2023/09/24 15:26:19;;;;;;;0.55;0.20;;;;;;;17.64;56.47;153127.31;10463779;28;20043;-72
2023/09/24 15:31:21;;;;;;;0.30;0.20;;;;;;;17.60;56.95;153116.94;10498536;28;20044;-71
2023/09/24 15:36:22;;;;;;;0.20;0.20;;;;;;;17.61;57.11;153120.81;10482639;28;20045;-72
2023/09/24 15:41:28;;;;;;;0.43;0.30;;;;;;;17.63;57.32;153126.03;10458250;28;20457;-72
2023/09/24 15:46:30;;;;;;;0.17;0.10;;;;;;;17.41;57.79;153068.94;10457613;28;20065;-71
2023/09/24 15:51:32;;;;;;;0.30;0.30;;;;;;;17.25;57.98;153028.69;10458265;28;20045;-71
2023/09/24 15:56:34;;;;;;;0.40;0.22;;;;;;;17.12;59.27;152996.25;10465786;28;20120;-71
2023/09/24 16:01:39;;;;;;;0.30;0.30;;;;;;;17.12;59.27;152996.25;10481219;28;20492;-70
2023/09/24 16:06:41;;;;;;;0.95;0.40;;;;;;;17.02;59.39;152970.31;10470528;28;20098;-70
2023/09/24 16:11:42;;;;;;;0.60;0.50;;;;;;;16.88;59.29;152935.28;10506856;28;20040;-70
2023/09/24 16:16:44;;;;;;;0.52;0.40;;;;;;;16.72;60.32;152893.78;10491705;28;20084;-70
2023/09/24 16:21:46;;;;;;;0.30;0.28;;;;;;;16.63;59.92;152870.38;10449357;28;20370;-71
2023/09/24 16:26:49;;;;;;;0.50;0.20;;;;;;;16.54;60.41;152847.03;10464320;28;20053;-70
2023/09/24 16:31:51;;;;;;;0.50;0.30;;;;;;;16.49;62.32;152834.09;10464285;28;20047;-71
2023/09/24 16:36:53;;;;;;;0.40;0.35;;;;;;;16.37;64.27;152804.25;10498267;28;20072;-71
2023/09/24 16:41:55;;;;;;;1.45;0.40;;;;;;;16.38;67.77;152808.16;10507727;28;20037;-71
2023/09/24 16:46:56;;;;;;;0.32;0.30;;;;;;;16.26;69.52;152775.75;10505524;28;20083;-70
2023/09/24 16:51:58;;;;;;;0.52;0.40;;;;;;;16.23;70.78;152767.97;10487054;28;20136;-71
2023/09/24 16:57:00;;;;;;;2.00;0.55;;;;;;;16.22;69.64;152766.66;10505091;28;20055;-71
2023/09/24 17:02:02;;;;;;;0.85;0.30;;;;;;;15.89;69.82;152683.72;10505779;28;20037;-72
2023/09/24 17:07:04;;;;;;;1.90;1.50;;;;;;;15.84;71.79;152669.41;10505678;28;20058;-69
2023/09/24 17:12:06;;;;;;;0.55;0.50;;;;;;;15.55;72.65;152595.53;10485804;28;20500;-69
2023/09/24 17:17:09;;;;;;;0.98;0.60;;;;;;;15.60;72.80;152608.47;10504112;28;20047;-70
2023/09/24 17:22:10;;;;;;;0.93;0.50;;;;;;;15.36;72.87;152548.88;10487028;28;20044;-70
2023/09/24 17:27:12;;;;;;;0.70;0.68;;;;;;;15.07;74.87;152473.72;10508106;28;20045;-71
2023/09/24 17:32:14;;;;;;;0.82;0.68;;;;;;;14.95;75.57;152442.63;10505909;28;20135;-70
2023/09/24 17:37:16;;;;;;;0.90;0.68;;;;;;;14.73;77.23;152388.22;10486409;28;20049;-70
2023/09/24 17:42:18;;;;;;;0.63;0.50;;;;;;;14.80;77.31;152405.06;10505011;28;20379;-69
2023/09/24 17:47:20;;;;;;;1.10;0.80;;;;;;;14.54;77.58;152339.03;10505559;28;20051;-70
2023/09/24 17:52:23;;;;;;;0.85;0.75;;;;;;;14.53;77.82;152337.72;10504322;28;20098;-70
2023/09/24 17:57:26;;;;;;;0.70;0.70;;;;;;;14.52;77.17;152335.16;10504002;28;20045;-70
2023/09/24 18:02:28;;;;;;;1.05;0.77;;;;;;;14.28;78.12;152274.22;10503957;28;20060;-70
2023/09/24 18:07:30;;;;;;;0.88;0.80;;;;;;;14.02;79.72;152206.91;10487129;28;20045;-70
2023/09/24 18:12:32;;;;;;;1.65;1.10;;;;;;;13.79;81.46;152148.66;10504034;28;20063;-69
2023/09/24 18:17:34;;;;;;;1.00;0.90;;;;;;;13.73;81.99;152133.16;10501455;28;20048;-69
2023/09/24 18:22:39;;;;;;;0.98;0.77;;;;;;;13.66;82.38;152116.31;10502305;28;20037;-70
2023/09/24 18:27:41;;;;;;;1.00;0.80;;;;;;;13.38;83.26;152046.44;10502414;28;20384;-71
2023/09/24 18:32:43;;;;;;;1.50;1.40;;;;;;;13.11;85.21;151977.84;10504871;28;20444;-71
2023/09/24 18:37:45;;;;;;;1.95;1.10;;;;;;;13.22;84.51;152005.03;10484194;28;20150;-71
2023/09/24 18:42:47;;;;;;;1.95;1.50;;;;;;;13.44;82.48;152060.66;10484375;28;20488;-71
2023/09/24 18:47:49;;;;;;;2.33;1.60;;;;;;;13.25;82.99;152011.50;10503485;28;20123;-70
2023/09/24 18:52:51;;;;;;;2.00;1.40;;;;;;;12.99;84.46;151946.78;10504526;28;20040;-70
2023/09/24 18:57:53;;;;;;;1.75;1.42;;;;;;;12.69;86.64;151869.16;10502398;28;20040;-70
2023/09/24 19:02:55;;;;;;;1.55;1.30;;;;;;;12.90;86.11;151922.22;10501216;28;20053;-70
2023/09/24 19:07:57;;;;;;;1.60;1.00;;;;;;;12.62;87.35;151852.38;10502412;28;20515;-70
2023/09/24 19:12:58;;;;;;;1.20;1.08;;;;;;;12.38;88.73;151792.88;10501966;28;20519;-70
2023/09/24 19:18:00;;;;;;;1.42;0.90;;;;;;;12.64;88.01;151857.53;10501633;28;20083;-69
2023/09/24 19:23:03;;;;;;;1.25;0.90;;;;;;;12.53;88.40;151829.09;10500845;28;20127;-70
2023/09/24 19:28:04;;;;;;;1.40;1.00;;;;;;;12.34;88.96;151782.53;10500616;28;20074;-70
2023/09/24 19:33:06;;;;;;;1.45;1.00;;;;;;;12.26;89.01;151760.53;10500341;28;20211;-70
2023/09/24 19:38:08;;;;;;;1.33;1.20;;;;;;;12.17;89.57;151737.28;10502545;28;20106;-70
2023/09/24 19:43:10;;;;;;;2.05;1.20;;;;;;;11.90;92.10;151668.78;10499310;28;20048;-70
2023/09/24 19:48:12;;;;;;;1.48;1.15;;;;;;;11.84;93.45;151654.56;10500898;28;20036;-70
2023/09/24 19:53:14;;;;;;;1.60;1.20;;;;;;;11.68;95.56;151613.16;10482194;28;20121;-70
2023/09/24 19:58:20;;;;;;;2.25;1.25;;;;;;;11.72;94.95;151624.78;10504134;28;20037;-71
2023/09/24 20:03:22;;;;;;;2.63;1.20;;;;;;;11.90;94.60;151670.06;10482276;28;20072;-70
2023/09/24 20:08:32;;;;;;;1.65;1.48;;;;;;;11.63;96.29;151602.81;10483059;28;20098;-70
2023/09/24 20:13:51;;;;;;;1.98;1.33;;;;;;;11.72;96.13;151624.78;10500229;28;20452;-70
2023/09/24 20:18:53;;;;;;;2.97;1.50;;;;;;;11.46;96.67;151557.59;10485059;28;20554;-70
2023/09/24 20:23:54;;;;;;;1.48;1.25;;;;;;;11.29;98.60;151516.28;10498742;28;20224;-70
2023/09/24 20:28:56;;;;;;;1.73;1.17;;;;;;;11.28;98.23;151513.66;10499039;28;20121;-70
2023/09/24 20:33:59;;;;;;;1.83;1.35;;;;;;;11.18;99.65;151486.56;10499009;28;20052;-70
2023/09/24 20:39:05;;;;;;;1.75;1.35;;;;;;;11.12;100.00;151472.34;10485778;28;20036;-70
2023/09/24 20:44:08;;;;;;;1.58;1.48;;;;;;;11.05;99.74;151455.53;10491414;28;20059;-69
2023/09/24 20:49:10;;;;;;;1.52;1.20;;;;;;;11.32;99.60;151522.72;10506052;28;20111;-72
2023/09/24 20:54:12;;;;;;;1.15;1.05;;;;;;;11.36;98.22;151533.03;10470795;28;20052;-72
2023/09/24 20:59:21;;;;;;;2.28;1.70;;;;;;;11.16;99.04;151481.41;10505546;28;20079;-71
2023/09/24 21:04:23;;;;;;;2.00;1.50;;;;;;;11.00;99.52;151441.34;10507073;28;20037;-71
2023/09/24 21:09:25;;;;;;;2.75;1.70;;;;;;;10.97;99.25;151434.88;10504943;28;20036;-71
2023/09/24 21:14:27;;;;;;;1.73;1.38;;;;;;;11.04;98.57;151452.97;10487311;28;20048;-71
2023/09/24 21:19:28;;;;;;;2.78;1.40;;;;;;;11.02;99.13;151446.47;10486708;28;20044;-71
2023/09/24 21:24:30;;;;;;;1.33;1.15;;;;;;;11.15;98.27;151478.78;10505134;28;20127;-71
2023/09/24 21:29:32;;;;;;;1.70;1.40;;;;;;;11.15;96.41;151480.06;10487904;28;20041;-72
2023/09/24 21:34:34;;;;;;;2.28;1.10;;;;;;;10.69;99.99;151363.84;10485392;28;20098;-72
2023/09/24 21:39:37;;;;;;;1.15;1.00;;;;;;;10.71;100.00;151369.00;10504432;28;20519;-71
2023/09/24 21:44:38;;;;;;;1.42;1.08;;;;;;;10.47;100.00;151307.03;10502608;28;20103;-72
2023/09/24 21:49:40;;;;;;;1.30;0.98;;;;;;;10.42;100.00;151295.44;10501501;28;20111;-71
2023/09/24 21:54:42;;;;;;;2.20;1.30;;;;;;;10.37;100.00;151281.25;10503032;28;20118;-72
2023/09/24 21:59:43;;;;;;;1.83;1.30;;;;;;;10.70;99.31;151365.13;10503894;28;20071;-72
2023/09/24 22:04:45;;;;;;;1.55;1.33;;;;;;;10.53;98.94;151323.81;10502964;28;20044;-71
2023/09/24 22:09:47;;;;;;;2.25;1.67;;;;;;;10.11;100.00;151217.91;10484296;28;20099;-71
2023/09/24 22:14:49;;;;;;;2.28;1.55;;;;;;;10.27;100.00;151258.00;10467658;28;20052;-71
2023/09/24 22:19:51;;;;;;;1.60;1.42;;;;;;;9.96;100.00;151179.22;10502823;28;20052;-71
2023/09/24 22:24:53;;;;;;;1.52;1.42;;;;;;;9.93;100.00;151171.47;10501146;28;20463;-71
2023/09/24 22:29:54;;;;;;;2.35;1.50;;;;;;;9.91;100.00;151166.28;10500771;28;20044;-71
2023/09/24 22:34:56;;;;;;;1.55;1.20;;;;;;;9.72;100.00;151118.53;10501143;28;20546;-71
2023/09/24 22:39:58;;;;;;;1.95;1.67;;;;;;;9.89;100.00;151159.84;10501664;28;20098;-70
2023/09/24 22:45:00;;;;;;;1.85;1.52;;;;;;;10.19;100.00;151236.00;10502594;28;20040;-71
2023/09/24 22:50:05;;;;;;;3.75;1.65;;;;;;;10.08;100.00;151210.16;10502332;28;20118;-72
2023/09/24 22:55:07;;;;;;;1.73;1.35;;;;;;;9.72;100.00;151117.25;10502676;28;20044;-72
2023/09/24 23:00:13;;;;;;;1.67;1.20;;;;;;;10.01;100.00;151192.13;10501673;28;20041;-72
2023/09/24 23:05:17;;;;;;;1.38;1.23;;;;;;;9.66;100.00;151101.78;10504710;28;20063;-73
2023/09/24 23:10:21;;;;;;;1.15;1.05;;;;;;;9.70;100.00;151112.13;10505855;28;20072;-72
2023/09/24 23:15:23;;;;;;;1.77;1.23;;;;;;;9.60;100.00;151087.56;10505842;28;20048;-72